Edna T. Gattle — WDD2528 — position and weather

sailwx.info

Track history (hours):
 
Tides and Currents Weather Stations Pressure Air Temp Water Temp Dewpoint Dewpoint Depression Visibility Wind Speed Wind Dir Waves Ship Positions

Edna T. Gattle

Owner: Terral RiverService, Inc., Lake Providence, LA. More information available from US FCC via Universal Licensing System and Coast Guard Vessel Documentation Center.

Last reported at 2014-Dec-19 14:07 UTC. Time now 2014-Dec-20 03:02 UTC.
Position N 30°01' W 091°29'.

Length 33 m; draft 2.6 m.

Type: Towing. MMSI: 367116420.

Date/timePositionNaut miles runAvg speedWind from/ knotsBaromVisibWave heightAir tempDewpointWater temp
2014-Dec-19 14:07N 30°01' W 091°29'6 7.0
2014-Dec-19 13:17N 29°55' W 091°28'5 6.8
2014-Dec-19 12:33N 29°51' W 091°25'3 3.3
2014-Dec-19 11:33N 29°48' W 091°22'0 0.0
2014-Dec-19 10:33N 29°48' W 091°22'0 0.0
2014-Dec-19 09:33N 29°48' W 091°22'0 0.0
2014-Dec-19 08:33N 29°48' W 091°22'0 0.0
2014-Dec-19 07:33N 29°48' W 091°22'0 0.0
2014-Dec-19 06:33N 29°48' W 091°22'0 0.0
2014-Dec-19 05:33N 29°48' W 091°22'1 1.3
2014-Dec-19 04:33N 29°47' W 091°22'6 5.9
2014-Dec-19 03:33N 29°46' W 091°15'5 5.3
2014-Dec-19 02:33N 29°41' W 091°13'4 3.6
2014-Dec-19 01:33N 29°39' W 091°17'7 6.7
2014-Dec-19 00:33N 29°39' W 091°25'5 5.4
2014-Dec-18 23:33N 29°42' W 091°30'5 5.5
2014-Dec-18 22:33N 29°45' W 091°35'  
2014-Dec-14 15:10N 29°46' W 091°46'3 4.6
2014-Dec-14 14:31N 29°46' W 091°42'5 4.9
2014-Dec-14 13:33N 29°46' W 091°37'5 5.3
2014-Dec-14 12:33N 29°43' W 091°32'3 2.5
2014-Dec-14 11:31N 29°41' W 091°29'0 0.0
2014-Dec-14 10:33N 29°41' W 091°29'0 0.0
2014-Dec-14 09:33N 29°41' W 091°29'0 0.0
2014-Dec-14 08:33N 29°41' W 091°29'0 0.0
2014-Dec-14 07:31N 29°41' W 091°29'0 0.0
2014-Dec-14 06:33N 29°41' W 091°29'4 3.5
2014-Dec-14 05:22N 29°39' W 091°25'4 4.6
2014-Dec-14 04:33N 29°39' W 091°21'5 5.0
2014-Dec-14 03:33N 29°39' W 091°15'6 6.0
2014-Dec-14 02:33N 29°45' W 091°14'6 6.5
2014-Dec-14 01:33N 29°47' W 091°21'8 7.7
2014-Dec-14 00:33N 29°53' W 091°26'  
Track history (hours):
 
Tides and Currents Weather Stations Pressure Air Temp Water Temp Dewpoint Dewpoint Depression Visibility Wind Speed Wind Dir Waves Ship Positions

Edna T. Gattle

Owner: Terral RiverService, Inc., Lake Providence, LA. More information available from US FCC via Universal Licensing System and Coast Guard Vessel Documentation Center.

Last reported at 2014-Dec-19 14:07 UTC. Time now 2014-Dec-20 03:02 UTC.
Position N 30°01' W 091°29'.

Length 33 m; draft 2.6 m.

Type: Towing. MMSI: 367116420.

Date/timePositionNaut miles runAvg speedWind from/ knotsBaromVisibWave heightAir tempDewpointWater temp
2014-Dec-19 14:07N 30°01' W 091°29'6 7.0
2014-Dec-19 13:17N 29°55' W 091°28'5 6.8
2014-Dec-19 12:33N 29°51' W 091°25'3 3.3
2014-Dec-19 11:33N 29°48' W 091°22'0 0.0
2014-Dec-19 10:33N 29°48' W 091°22'0 0.0
2014-Dec-19 09:33N 29°48' W 091°22'0 0.0
2014-Dec-19 08:33N 29°48' W 091°22'0 0.0
2014-Dec-19 07:33N 29°48' W 091°22'0 0.0
2014-Dec-19 06:33N 29°48' W 091°22'0 0.0
2014-Dec-19 05:33N 29°48' W 091°22'1 1.3
2014-Dec-19 04:33N 29°47' W 091°22'6 5.9
2014-Dec-19 03:33N 29°46' W 091°15'5 5.3
2014-Dec-19 02:33N 29°41' W 091°13'4 3.6
2014-Dec-19 01:33N 29°39' W 091°17'7 6.7
2014-Dec-19 00:33N 29°39' W 091°25'5 5.4
2014-Dec-18 23:33N 29°42' W 091°30'5 5.5
2014-Dec-18 22:33N 29°45' W 091°35'  
2014-Dec-14 15:10N 29°46' W 091°46'3 4.6
2014-Dec-14 14:31N 29°46' W 091°42'5 4.9
2014-Dec-14 13:33N 29°46' W 091°37'5 5.3
2014-Dec-14 12:33N 29°43' W 091°32'3 2.5
2014-Dec-14 11:31N 29°41' W 091°29'0 0.0
2014-Dec-14 10:33N 29°41' W 091°29'0 0.0
2014-Dec-14 09:33N 29°41' W 091°29'0 0.0
2014-Dec-14 08:33N 29°41' W 091°29'0 0.0
2014-Dec-14 07:31N 29°41' W 091°29'0 0.0
2014-Dec-14 06:33N 29°41' W 091°29'4 3.5
2014-Dec-14 05:22N 29°39' W 091°25'4 4.6
2014-Dec-14 04:33N 29°39' W 091°21'5 5.0
2014-Dec-14 03:33N 29°39' W 091°15'6 6.0
2014-Dec-14 02:33N 29°45' W 091°14'6 6.5
2014-Dec-14 01:33N 29°47' W 091°21'8 7.7
2014-Dec-14 00:33N 29°53' W 091°26'  

Dump ship's entire track history